sensor_id;sensor_type;location;lat;lon;timestamp;P1;durP1;ratioP1;P2;durP2;ratioP2
9270;SDS011;4673;53.458;9.940;2022-09-19T00:03:36;0.10;;;0.10;;
9270;SDS011;4673;53.458;9.940;2022-09-19T00:06:03;0.10;;;0.10;;
9270;SDS011;4673;53.458;9.940;2022-09-19T00:08:29;0.20;;;0.20;;
9270;SDS011;4673;53.458;9.940;2022-09-19T00:10:55;0.10;;;0.10;;
9270;SDS011;4673;53.458;9.940;2022-09-19T00:13:20;0.10;;;0.10;;
9270;SDS011;4673;53.458;9.940;2022-09-19T00:15:47;0.10;;;0.10;;
9270;SDS011;4673;53.458;9.940;2022-09-19T00:18:14;0.10;;;0.10;;
9270;SDS011;4673;53.458;9.940;2022-09-19T00:20:41;0.10;;;0.10;;
9270;SDS011;4673;53.458;9.940;2022-09-19T00:23:08;0.20;;;0.20;;
9270;SDS011;4673;53.458;9.940;2022-09-19T00:26:00;0.10;;;0.10;;
9270;SDS011;4673;53.458;9.940;2022-09-19T00:28:32;0.10;;;0.10;;
9270;SDS011;4673;53.458;9.940;2022-09-19T00:30:58;0.20;;;0.20;;
9270;SDS011;4673;53.458;9.940;2022-09-19T00:33:28;0.20;;;0.20;;
9270;SDS011;4673;53.458;9.940;2022-09-19T00:35:56;0.20;;;0.20;;
9270;SDS011;4673;53.458;9.940;2022-09-19T00:38:24;0.20;;;0.20;;
9270;SDS011;4673;53.458;9.940;2022-09-19T00:40:52;0.20;;;0.20;;
9270;SDS011;4673;53.458;9.940;2022-09-19T00:43:20;0.20;;;0.20;;
9270;SDS011;4673;53.458;9.940;2022-09-19T00:45:46;0.20;;;0.20;;
9270;SDS011;4673;53.458;9.940;2022-09-19T00:48:15;0.10;;;0.10;;
9270;SDS011;4673;53.458;9.940;2022-09-19T00:50:42;0.17;;;0.17;;
9270;SDS011;4673;53.458;9.940;2022-09-19T00:53:15;0.20;;;0.20;;
9270;SDS011;4673;53.458;9.940;2022-09-19T00:55:45;0.10;;;0.10;;
9270;SDS011;4673;53.458;9.940;2022-09-19T00:58:18;0.20;;;0.20;;
9270;SDS011;4673;53.458;9.940;2022-09-19T01:00:48;0.20;;;0.20;;
9270;SDS011;4673;53.458;9.940;2022-09-19T01:03:14;0.20;;;0.20;;
9270;SDS011;4673;53.458;9.940;2022-09-19T01:08:17;0.20;;;0.20;;
9270;SDS011;4673;53.458;9.940;2022-09-19T01:11:05;0.20;;;0.20;;
9270;SDS011;4673;53.458;9.940;2022-09-19T01:22:05;0.20;;;0.20;;
9270;SDS011;4673;53.458;9.940;2022-09-19T01:24:46;0.10;;;0.10;;
9270;SDS011;4673;53.458;9.940;2022-09-19T01:29:47;0.10;;;0.10;;
9270;SDS011;4673;53.458;9.940;2022-09-19T01:32:36;0.13;;;0.13;;
9270;SDS011;4673;53.458;9.940;2022-09-19T01:35:30;0.20;;;0.20;;
9270;SDS011;4673;53.458;9.940;2022-09-19T01:38:00;0.13;;;0.13;;
9270;SDS011;4673;53.458;9.940;2022-09-19T01:40:32;0.20;;;0.20;;
9270;SDS011;4673;53.458;9.940;2022-09-19T01:43:00;0.10;;;0.10;;
9270;SDS011;4673;53.458;9.940;2022-09-19T01:45:31;0.10;;;0.10;;
9270;SDS011;4673;53.458;9.940;2022-09-19T01:51:01;0.20;;;0.20;;
9270;SDS011;4673;53.458;9.940;2022-09-19T01:53:51;0.20;;;0.20;;
9270;SDS011;4673;53.458;9.940;2022-09-19T01:57:01;0.20;;;0.20;;
9270;SDS011;4673;53.458;9.940;2022-09-19T02:02:38;0.10;;;0.10;;
9270;SDS011;4673;53.458;9.940;2022-09-19T02:05:10;0.10;;;0.10;;
9270;SDS011;4673;53.458;9.940;2022-09-19T02:07:59;0.20;;;0.20;;
9270;SDS011;4673;53.458;9.940;2022-09-19T02:10:36;0.20;;;0.20;;
9270;SDS011;4673;53.458;9.940;2022-09-19T02:13:05;0.10;;;0.10;;
9270;SDS011;4673;53.458;9.940;2022-09-19T02:15:34;0.20;;;0.20;;
9270;SDS011;4673;53.458;9.940;2022-09-19T02:18:03;0.20;;;0.20;;
9270;SDS011;4673;53.458;9.940;2022-09-19T02:20:39;0.20;;;0.20;;
9270;SDS011;4673;53.458;9.940;2022-09-19T02:23:16;0.20;;;0.20;;
9270;SDS011;4673;53.458;9.940;2022-09-19T02:25:47;0.10;;;0.10;;
9270;SDS011;4673;53.458;9.940;2022-09-19T02:28:16;0.20;;;0.20;;
9270;SDS011;4673;53.458;9.940;2022-09-19T02:30:47;0.40;;;0.40;;
9270;SDS011;4673;53.458;9.940;2022-09-19T02:33:14;0.10;;;0.10;;
9270;SDS011;4673;53.458;9.940;2022-09-19T02:36:03;0.20;;;0.20;;
9270;SDS011;4673;53.458;9.940;2022-09-19T02:38:47;0.20;;;0.20;;
9270;SDS011;4673;53.458;9.940;2022-09-19T02:41:40;0.20;;;0.20;;
9270;SDS011;4673;53.458;9.940;2022-09-19T02:44:17;0.10;;;0.10;;
9270;SDS011;4673;53.458;9.940;2022-09-19T02:46:53;0.13;;;0.13;;
9270;SDS011;4673;53.458;9.940;2022-09-19T02:49:37;0.20;;;0.20;;
9270;SDS011;4673;53.458;9.940;2022-09-19T02:52:24;0.10;;;0.10;;
9270;SDS011;4673;53.458;9.940;2022-09-19T02:54:55;0.10;;;0.10;;
9270;SDS011;4673;53.458;9.940;2022-09-19T02:57:27;0.20;;;0.20;;
9270;SDS011;4673;53.458;9.940;2022-09-19T02:59:55;0.10;;;0.10;;
9270;SDS011;4673;53.458;9.940;2022-09-19T03:02:37;0.10;;;0.10;;
9270;SDS011;4673;53.458;9.940;2022-09-19T03:05:06;0.20;;;0.20;;
9270;SDS011;4673;53.458;9.940;2022-09-19T03:07:38;0.10;;;0.10;;
9270;SDS011;4673;53.458;9.940;2022-09-19T03:10:15;0.20;;;0.20;;
9270;SDS011;4673;53.458;9.940;2022-09-19T03:12:49;0.20;;;0.20;;
9270;SDS011;4673;53.458;9.940;2022-09-19T03:15:22;0.20;;;0.20;;
9270;SDS011;4673;53.458;9.940;2022-09-19T03:17:58;0.13;;;0.13;;
9270;SDS011;4673;53.458;9.940;2022-09-19T03:20:25;0.20;;;0.20;;
9270;SDS011;4673;53.458;9.940;2022-09-19T03:22:51;0.10;;;0.10;;
9270;SDS011;4673;53.458;9.940;2022-09-19T03:25:18;0.20;;;0.20;;
9270;SDS011;4673;53.458;9.940;2022-09-19T03:27:44;0.20;;;0.20;;
9270;SDS011;4673;53.458;9.940;2022-09-19T03:30:11;0.13;;;0.13;;
9270;SDS011;4673;53.458;9.940;2022-09-19T03:32:38;0.17;;;0.17;;
9270;SDS011;4673;53.458;9.940;2022-09-19T03:35:06;0.20;;;0.20;;
9270;SDS011;4673;53.458;9.940;2022-09-19T03:37:35;0.10;;;0.10;;
9270;SDS011;4673;53.458;9.940;2022-09-19T03:40:01;0.10;;;0.10;;
9270;SDS011;4673;53.458;9.940;2022-09-19T03:42:27;0.10;;;0.10;;
9270;SDS011;4673;53.458;9.940;2022-09-19T03:44:53;0.20;;;0.20;;
9270;SDS011;4673;53.458;9.940;2022-09-19T03:47:19;0.10;;;0.10;;
9270;SDS011;4673;53.458;9.940;2022-09-19T03:49:46;0.10;;;0.10;;
9270;SDS011;4673;53.458;9.940;2022-09-19T03:52:15;0.13;;;0.13;;
9270;SDS011;4673;53.458;9.940;2022-09-19T03:54:42;0.20;;;0.20;;
9270;SDS011;4673;53.458;9.940;2022-09-19T03:57:09;0.20;;;0.20;;
9270;SDS011;4673;53.458;9.940;2022-09-19T03:59:35;0.20;;;0.20;;
9270;SDS011;4673;53.458;9.940;2022-09-19T04:02:04;0.20;;;0.20;;
9270;SDS011;4673;53.458;9.940;2022-09-19T04:04:29;0.10;;;0.10;;
9270;SDS011;4673;53.458;9.940;2022-09-19T04:06:55;0.20;;;0.20;;
9270;SDS011;4673;53.458;9.940;2022-09-19T04:09:21;0.10;;;0.10;;
9270;SDS011;4673;53.458;9.940;2022-09-19T04:11:46;0.10;;;0.10;;
9270;SDS011;4673;53.458;9.940;2022-09-19T04:14:12;0.20;;;0.20;;
9270;SDS011;4673;53.458;9.940;2022-09-19T04:16:40;0.20;;;0.20;;
9270;SDS011;4673;53.458;9.940;2022-09-19T04:19:06;0.13;;;0.13;;
9270;SDS011;4673;53.458;9.940;2022-09-19T04:21:34;0.20;;;0.20;;
9270;SDS011;4673;53.458;9.940;2022-09-19T04:24:00;0.20;;;0.20;;
9270;SDS011;4673;53.458;9.940;2022-09-19T04:26:26;0.10;;;0.10;;
9270;SDS011;4673;53.458;9.940;2022-09-19T04:28:52;0.10;;;0.10;;
9270;SDS011;4673;53.458;9.940;2022-09-19T04:31:18;0.10;;;0.10;;
9270;SDS011;4673;53.458;9.940;2022-09-19T04:33:43;0.20;;;0.20;;
9270;SDS011;4673;53.458;9.940;2022-09-19T04:36:09;0.10;;;0.10;;
9270;SDS011;4673;53.458;9.940;2022-09-19T04:38:35;0.10;;;0.10;;
9270;SDS011;4673;53.458;9.940;2022-09-19T04:41:02;0.10;;;0.10;;
9270;SDS011;4673;53.458;9.940;2022-09-19T04:43:28;0.10;;;0.10;;
9270;SDS011;4673;53.458;9.940;2022-09-19T04:45:55;0.10;;;0.10;;
9270;SDS011;4673;53.458;9.940;2022-09-19T04:48:21;0.10;;;0.10;;
9270;SDS011;4673;53.458;9.940;2022-09-19T04:50:48;0.10;;;0.10;;
9270;SDS011;4673;53.458;9.940;2022-09-19T04:53:22;0.20;;;0.20;;
9270;SDS011;4673;53.458;9.940;2022-09-19T04:55:49;0.10;;;0.10;;
9270;SDS011;4673;53.458;9.940;2022-09-19T04:58:16;0.17;;;0.17;;
9270;SDS011;4673;53.458;9.940;2022-09-19T05:00:42;0.10;;;0.10;;
9270;SDS011;4673;53.458;9.940;2022-09-19T05:03:11;0.10;;;0.10;;
9270;SDS011;4673;53.458;9.940;2022-09-19T05:05:42;0.10;;;0.10;;
9270;SDS011;4673;53.458;9.940;2022-09-19T05:08:12;0.20;;;0.20;;
9270;SDS011;4673;53.458;9.940;2022-09-19T05:10:40;0.20;;;0.20;;
9270;SDS011;4673;53.458;9.940;2022-09-19T05:13:07;0.10;;;0.10;;
9270;SDS011;4673;53.458;9.940;2022-09-19T05:15:33;0.10;;;0.10;;
9270;SDS011;4673;53.458;9.940;2022-09-19T05:17:59;0.20;;;0.20;;
9270;SDS011;4673;53.458;9.940;2022-09-19T05:20:24;0.20;;;0.20;;
9270;SDS011;4673;53.458;9.940;2022-09-19T05:22:53;0.10;;;0.10;;
9270;SDS011;4673;53.458;9.940;2022-09-19T05:25:29;0.20;;;0.20;;
9270;SDS011;4673;53.458;9.940;2022-09-19T05:27:59;0.20;;;0.20;;
9270;SDS011;4673;53.458;9.940;2022-09-19T05:30:31;0.10;;;0.10;;
9270;SDS011;4673;53.458;9.940;2022-09-19T05:32:57;0.10;;;0.10;;
9270;SDS011;4673;53.458;9.940;2022-09-19T05:35:25;0.10;;;0.10;;
9270;SDS011;4673;53.458;9.940;2022-09-19T05:37:51;0.10;;;0.10;;
9270;SDS011;4673;53.458;9.940;2022-09-19T05:40:17;0.10;;;0.10;;
9270;SDS011;4673;53.458;9.940;2022-09-19T05:42:44;0.10;;;0.10;;
9270;SDS011;4673;53.458;9.940;2022-09-19T05:45:13;0.10;;;0.10;;
9270;SDS011;4673;53.458;9.940;2022-09-19T05:47:39;0.20;;;0.20;;
9270;SDS011;4673;53.458;9.940;2022-09-19T05:50:06;0.10;;;0.10;;
9270;SDS011;4673;53.458;9.940;2022-09-19T05:52:36;0.17;;;0.17;;
9270;SDS011;4673;53.458;9.940;2022-09-19T05:55:21;0.10;;;0.10;;
9270;SDS011;4673;53.458;9.940;2022-09-19T05:57:51;0.10;;;0.10;;
9270;SDS011;4673;53.458;9.940;2022-09-19T06:00:22;0.20;;;0.20;;
9270;SDS011;4673;53.458;9.940;2022-09-19T06:02:55;0.10;;;0.10;;
9270;SDS011;4673;53.458;9.940;2022-09-19T06:05:22;0.20;;;0.20;;
9270;SDS011;4673;53.458;9.940;2022-09-19T06:07:49;0.10;;;0.10;;
9270;SDS011;4673;53.458;9.940;2022-09-19T06:10:21;0.10;;;0.10;;
9270;SDS011;4673;53.458;9.940;2022-09-19T06:12:48;0.10;;;0.10;;
9270;SDS011;4673;53.458;9.940;2022-09-19T06:15:14;0.10;;;0.10;;
9270;SDS011;4673;53.458;9.940;2022-09-19T06:17:40;0.10;;;0.10;;
9270;SDS011;4673;53.458;9.940;2022-09-19T06:20:06;0.10;;;0.10;;
9270;SDS011;4673;53.458;9.940;2022-09-19T06:22:33;0.10;;;0.10;;
9270;SDS011;4673;53.458;9.940;2022-09-19T06:24:58;0.20;;;0.20;;
9270;SDS011;4673;53.458;9.940;2022-09-19T06:27:26;0.10;;;0.10;;
9270;SDS011;4673;53.458;9.940;2022-09-19T06:29:52;0.10;;;0.10;;
9270;SDS011;4673;53.458;9.940;2022-09-19T06:32:18;0.10;;;0.10;;
9270;SDS011;4673;53.458;9.940;2022-09-19T06:34:45;0.10;;;0.10;;
9270;SDS011;4673;53.458;9.940;2022-09-19T06:37:11;0.20;;;0.20;;
9270;SDS011;4673;53.458;9.940;2022-09-19T06:39:38;0.10;;;0.10;;
9270;SDS011;4673;53.458;9.940;2022-09-19T06:42:03;0.10;;;0.10;;
9270;SDS011;4673;53.458;9.940;2022-09-19T06:44:29;0.10;;;0.10;;
9270;SDS011;4673;53.458;9.940;2022-09-19T06:46:55;0.10;;;0.10;;
9270;SDS011;4673;53.458;9.940;2022-09-19T06:49:21;0.10;;;0.10;;
9270;SDS011;4673;53.458;9.940;2022-09-19T06:51:47;0.10;;;0.10;;
9270;SDS011;4673;53.458;9.940;2022-09-19T06:54:13;0.10;;;0.10;;
9270;SDS011;4673;53.458;9.940;2022-09-19T06:56:39;0.10;;;0.10;;
9270;SDS011;4673;53.458;9.940;2022-09-19T06:59:06;0.10;;;0.10;;
9270;SDS011;4673;53.458;9.940;2022-09-19T07:01:32;0.20;;;0.20;;
9270;SDS011;4673;53.458;9.940;2022-09-19T07:03:58;0.20;;;0.20;;
9270;SDS011;4673;53.458;9.940;2022-09-19T07:06:23;0.17;;;0.17;;
9270;SDS011;4673;53.458;9.940;2022-09-19T07:08:49;0.20;;;0.20;;
9270;SDS011;4673;53.458;9.940;2022-09-19T07:11:15;0.10;;;0.10;;
9270;SDS011;4673;53.458;9.940;2022-09-19T07:13:41;0.20;;;0.20;;
9270;SDS011;4673;53.458;9.940;2022-09-19T07:16:06;0.20;;;0.20;;
9270;SDS011;4673;53.458;9.940;2022-09-19T07:18:32;0.10;;;0.10;;
9270;SDS011;4673;53.458;9.940;2022-09-19T07:21:02;0.10;;;0.10;;
9270;SDS011;4673;53.458;9.940;2022-09-19T07:23:28;0.20;;;0.20;;
9270;SDS011;4673;53.458;9.940;2022-09-19T07:25:55;0.17;;;0.17;;
9270;SDS011;4673;53.458;9.940;2022-09-19T07:28:21;0.20;;;0.20;;
9270;SDS011;4673;53.458;9.940;2022-09-19T07:30:48;0.10;;;0.10;;
9270;SDS011;4673;53.458;9.940;2022-09-19T07:33:14;0.10;;;0.10;;
9270;SDS011;4673;53.458;9.940;2022-09-19T07:35:42;0.10;;;0.10;;
9270;SDS011;4673;53.458;9.940;2022-09-19T07:38:15;1.23;;;1.23;;
9270;SDS011;4673;53.458;9.940;2022-09-19T07:40:43;0.10;;;0.10;;
9270;SDS011;4673;53.458;9.940;2022-09-19T07:43:10;0.20;;;0.20;;
9270;SDS011;4673;53.458;9.940;2022-09-19T07:45:41;0.10;;;0.10;;
9270;SDS011;4673;53.458;9.940;2022-09-19T07:48:12;0.10;;;0.10;;
9270;SDS011;4673;53.458;9.940;2022-09-19T07:50:38;0.40;;;0.40;;
9270;SDS011;4673;53.458;9.940;2022-09-19T07:53:09;0.10;;;0.10;;
9270;SDS011;4673;53.458;9.940;2022-09-19T07:55:36;4.53;;;4.53;;
9270;SDS011;4673;53.458;9.940;2022-09-19T07:58:03;0.10;;;0.10;;
9270;SDS011;4673;53.458;9.940;2022-09-19T08:00:30;0.10;;;0.10;;
9270;SDS011;4673;53.458;9.940;2022-09-19T08:02:58;0.20;;;0.20;;
9270;SDS011;4673;53.458;9.940;2022-09-19T08:05:26;0.10;;;0.10;;
9270;SDS011;4673;53.458;9.940;2022-09-19T08:07:53;0.10;;;0.10;;
9270;SDS011;4673;53.458;9.940;2022-09-19T08:10:19;0.10;;;0.10;;
9270;SDS011;4673;53.458;9.940;2022-09-19T08:12:46;0.10;;;0.10;;
9270;SDS011;4673;53.458;9.940;2022-09-19T08:15:13;0.33;;;0.33;;
9270;SDS011;4673;53.458;9.940;2022-09-19T08:18:02;0.10;;;0.10;;
9270;SDS011;4673;53.458;9.940;2022-09-19T08:20:31;0.10;;;0.10;;
9270;SDS011;4673;53.458;9.940;2022-09-19T08:23:02;0.10;;;0.10;;
9270;SDS011;4673;53.458;9.940;2022-09-19T08:25:30;0.10;;;0.10;;
9270;SDS011;4673;53.458;9.940;2022-09-19T08:27:57;0.20;;;0.20;;
9270;SDS011;4673;53.458;9.940;2022-09-19T08:30:24;0.10;;;0.10;;
9270;SDS011;4673;53.458;9.940;2022-09-19T08:32:52;0.10;;;0.10;;
9270;SDS011;4673;53.458;9.940;2022-09-19T08:35:18;0.10;;;0.10;;
9270;SDS011;4673;53.458;9.940;2022-09-19T08:37:52;0.10;;;0.10;;
9270;SDS011;4673;53.458;9.940;2022-09-19T08:40:23;0.20;;;0.20;;
9270;SDS011;4673;53.458;9.940;2022-09-19T08:54:02;0.10;;;0.10;;
9270;SDS011;4673;53.458;9.940;2022-09-19T08:56:35;0.10;;;0.10;;
9270;SDS011;4673;53.458;9.940;2022-09-19T08:59:03;0.20;;;0.20;;
9270;SDS011;4673;53.458;9.940;2022-09-19T09:01:36;0.10;;;0.10;;
9270;SDS011;4673;53.458;9.940;2022-09-19T09:04:17;0.10;;;0.10;;
9270;SDS011;4673;53.458;9.940;2022-09-19T09:15:28;0.10;;;0.10;;
9270;SDS011;4673;53.458;9.940;2022-09-19T09:21:02;0.10;;;0.10;;
9270;SDS011;4673;53.458;9.940;2022-09-19T09:23:42;0.10;;;0.10;;
9270;SDS011;4673;53.458;9.940;2022-09-19T09:26:21;0.10;;;0.10;;
9270;SDS011;4673;53.458;9.940;2022-09-19T09:28:57;0.20;;;0.20;;
9270;SDS011;4673;53.458;9.940;2022-09-19T09:31:38;0.10;;;0.10;;
9270;SDS011;4673;53.458;9.940;2022-09-19T09:34:16;0.10;;;0.10;;
9270;SDS011;4673;53.458;9.940;2022-09-19T09:37:04;0.10;;;0.10;;
9270;SDS011;4673;53.458;9.940;2022-09-19T09:39:46;0.10;;;0.10;;
9270;SDS011;4673;53.458;9.940;2022-09-19T09:42:48;0.25;;;0.25;;
9270;SDS011;4673;53.458;9.940;2022-09-19T09:45:21;0.10;;;0.10;;
9270;SDS011;4673;53.458;9.940;2022-09-19T09:56:15;0.20;;;0.20;;
9270;SDS011;4673;53.458;9.940;2022-09-19T09:59:18;0.10;;;0.10;;
9270;SDS011;4673;53.458;9.940;2022-09-19T10:02:14;0.10;;;0.10;;
9270;SDS011;4673;53.458;9.940;2022-09-19T10:05:05;0.15;;;0.15;;
9270;SDS011;4673;53.458;9.940;2022-09-19T10:07:42;0.10;;;0.10;;
9270;SDS011;4673;53.458;9.940;2022-09-19T10:10:32;0.10;;;0.10;;
9270;SDS011;4673;53.458;9.940;2022-09-19T10:15:55;0.10;;;0.10;;
9270;SDS011;4673;53.458;9.940;2022-09-19T10:18:28;0.10;;;0.10;;
9270;SDS011;4673;53.458;9.940;2022-09-19T10:21:04;0.10;;;0.10;;
9270;SDS011;4673;53.458;9.940;2022-09-19T10:23:30;0.65;;;0.65;;
9270;SDS011;4673;53.458;9.940;2022-09-19T10:25:58;0.10;;;0.10;;
9270;SDS011;4673;53.458;9.940;2022-09-19T10:30:59;0.10;;;0.10;;
9270;SDS011;4673;53.458;9.940;2022-09-19T10:33:40;0.10;;;0.10;;
9270;SDS011;4673;53.458;9.940;2022-09-19T10:36:16;0.77;;;0.77;;
9270;SDS011;4673;53.458;9.940;2022-09-19T10:38:48;2.78;;;2.78;;
9270;SDS011;4673;53.458;9.940;2022-09-19T10:41:17;3.33;;;3.33;;
9270;SDS011;4673;53.458;9.940;2022-09-19T10:43:46;2.47;;;2.47;;
9270;SDS011;4673;53.458;9.940;2022-09-19T10:46:21;3.25;;;3.25;;
9270;SDS011;4673;53.458;9.940;2022-09-19T10:48:49;2.95;;;2.95;;
9270;SDS011;4673;53.458;9.940;2022-09-19T10:51:17;3.30;;;3.25;;
9270;SDS011;4673;53.458;9.940;2022-09-19T10:53:44;3.40;;;3.40;;
9270;SDS011;4673;53.458;9.940;2022-09-19T10:59:34;3.00;;;3.00;;
9270;SDS011;4673;53.458;9.940;2022-09-19T11:01:44;3.53;;;3.50;;
9270;SDS011;4673;53.458;9.940;2022-09-19T11:04:38;4.00;;;3.90;;
9270;SDS011;4673;53.458;9.940;2022-09-19T11:07:14;2.38;;;2.38;;
9270;SDS011;4673;53.458;9.940;2022-09-19T11:09:42;3.17;;;3.17;;
9270;SDS011;4673;53.458;9.940;2022-09-19T11:12:10;2.88;;;2.88;;
9270;SDS011;4673;53.458;9.940;2022-09-19T11:14:43;3.95;;;3.85;;
9270;SDS011;4673;53.458;9.940;2022-09-19T11:23:20;2.15;;;2.15;;
9270;SDS011;4673;53.458;9.940;2022-09-19T11:33:38;2.28;;;2.28;;
9270;SDS011;4673;53.458;9.940;2022-09-19T11:47:29;2.03;;;2.03;;
9270;SDS011;4673;53.458;9.940;2022-09-19T11:50:21;2.13;;;2.13;;
9270;SDS011;4673;53.458;9.940;2022-09-19T11:58:54;1.40;;;1.40;;
9270;SDS011;4673;53.458;9.940;2022-09-19T12:04:13;1.70;;;1.70;;
9270;SDS011;4673;53.458;9.940;2022-09-19T12:09:43;1.13;;;1.13;;
9270;SDS011;4673;53.458;9.940;2022-09-19T12:12:21;1.75;;;1.75;;
9270;SDS011;4673;53.458;9.940;2022-09-19T12:14:57;1.23;;;1.23;;
9270;SDS011;4673;53.458;9.940;2022-09-19T12:20:35;1.15;;;1.15;;
9270;SDS011;4673;53.458;9.940;2022-09-19T12:23:23;1.30;;;1.30;;
9270;SDS011;4673;53.458;9.940;2022-09-19T12:26:12;1.00;;;1.00;;
9270;SDS011;4673;53.458;9.940;2022-09-19T12:28:45;1.35;;;1.35;;
9270;SDS011;4673;53.458;9.940;2022-09-19T12:31:23;1.05;;;1.05;;
9270;SDS011;4673;53.458;9.940;2022-09-19T12:33:53;1.23;;;1.23;;
9270;SDS011;4673;53.458;9.940;2022-09-19T12:36:25;1.10;;;1.10;;
9270;SDS011;4673;53.458;9.940;2022-09-19T12:38:58;0.70;;;0.70;;
9270;SDS011;4673;53.458;9.940;2022-09-19T12:49:36;0.75;;;0.75;;
9270;SDS011;4673;53.458;9.940;2022-09-19T12:52:39;0.95;;;0.95;;
9270;SDS011;4673;53.458;9.940;2022-09-19T12:55:13;0.95;;;0.95;;
9270;SDS011;4673;53.458;9.940;2022-09-19T13:00:18;0.70;;;0.70;;
9270;SDS011;4673;53.458;9.940;2022-09-19T13:02:50;0.43;;;0.43;;
9270;SDS011;4673;53.458;9.940;2022-09-19T13:10:37;0.87;;;0.87;;
9270;SDS011;4673;53.458;9.940;2022-09-19T13:16:01;0.75;;;0.75;;
9270;SDS011;4673;53.458;9.940;2022-09-19T13:18:31;0.60;;;0.60;;
9270;SDS011;4673;53.458;9.940;2022-09-19T13:24:05;0.60;;;0.60;;
9270;SDS011;4673;53.458;9.940;2022-09-19T13:26:33;0.93;;;0.93;;
9270;SDS011;4673;53.458;9.940;2022-09-19T13:34:39;1.70;;;1.70;;
9270;SDS011;4673;53.458;9.940;2022-09-19T13:40:41;1.50;;;1.50;;
9270;SDS011;4673;53.458;9.940;2022-09-19T13:48:29;1.27;;;1.27;;
9270;SDS011;4673;53.458;9.940;2022-09-19T13:51:57;2.00;;;2.00;;
9270;SDS011;4673;53.458;9.940;2022-09-19T13:56:39;1.47;;;1.47;;
9270;SDS011;4673;53.458;9.940;2022-09-19T13:59:18;1.20;;;1.20;;
9270;SDS011;4673;53.458;9.940;2022-09-19T14:01:54;1.00;;;1.00;;
9270;SDS011;4673;53.458;9.940;2022-09-19T14:07:33;1.20;;;1.20;;
9270;SDS011;4673;53.458;9.940;2022-09-19T14:10:35;1.27;;;1.27;;
9270;SDS011;4673;53.458;9.940;2022-09-19T14:24:18;1.10;;;1.10;;
9270;SDS011;4673;53.458;9.940;2022-09-19T14:27:08;1.57;;;1.57;;
9270;SDS011;4673;53.458;9.940;2022-09-19T14:32:31;1.13;;;1.13;;
9270;SDS011;4673;53.458;9.940;2022-09-19T14:35:07;1.50;;;1.50;;
9270;SDS011;4673;53.458;9.940;2022-09-19T14:43:22;0.93;;;0.93;;
9270;SDS011;4673;53.458;9.940;2022-09-19T14:57:02;1.23;;;1.23;;
9270;SDS011;4673;53.458;9.940;2022-09-19T14:59:29;0.77;;;0.77;;
9270;SDS011;4673;53.458;9.940;2022-09-19T15:02:57;0.90;;;0.90;;
9270;SDS011;4673;53.458;9.940;2022-09-19T15:07:54;0.68;;;0.68;;
9270;SDS011;4673;53.458;9.940;2022-09-19T15:10:32;0.75;;;0.75;;
9270;SDS011;4673;53.458;9.940;2022-09-19T15:13:23;1.00;;;1.00;;
9270;SDS011;4673;53.458;9.940;2022-09-19T15:15:52;0.73;;;0.73;;
9270;SDS011;4673;53.458;9.940;2022-09-19T15:18:44;0.63;;;0.63;;
9270;SDS011;4673;53.458;9.940;2022-09-19T15:21:19;0.93;;;0.93;;
9270;SDS011;4673;53.458;9.940;2022-09-19T15:23:47;0.50;;;0.50;;
9270;SDS011;4673;53.458;9.940;2022-09-19T15:26:15;0.50;;;0.50;;
9270;SDS011;4673;53.458;9.940;2022-09-19T15:31:23;0.80;;;0.80;;
9270;SDS011;4673;53.458;9.940;2022-09-19T15:34:04;0.40;;;0.40;;
9270;SDS011;4673;53.458;9.940;2022-09-19T15:36:35;0.80;;;0.80;;
9270;SDS011;4673;53.458;9.940;2022-09-19T15:39:02;0.53;;;0.53;;
9270;SDS011;4673;53.458;9.940;2022-09-19T15:41:29;0.40;;;0.40;;
9270;SDS011;4673;53.458;9.940;2022-09-19T15:43:57;0.90;;;0.90;;
9270;SDS011;4673;53.458;9.940;2022-09-19T15:48:52;0.43;;;0.43;;
9270;SDS011;4673;53.458;9.940;2022-09-19T15:51:27;0.40;;;0.40;;
9270;SDS011;4673;53.458;9.940;2022-09-19T15:53:54;0.57;;;0.57;;
9270;SDS011;4673;53.458;9.940;2022-09-19T15:56:20;0.63;;;0.63;;
9270;SDS011;4673;53.458;9.940;2022-09-19T15:58:51;0.47;;;0.47;;
9270;SDS011;4673;53.458;9.940;2022-09-19T16:01:28;0.50;;;0.50;;
9270;SDS011;4673;53.458;9.940;2022-09-19T16:06:37;0.60;;;0.60;;
9270;SDS011;4673;53.458;9.940;2022-09-19T16:09:48;1.00;;;1.00;;
9270;SDS011;4673;53.458;9.940;2022-09-19T16:12:38;0.50;;;0.50;;
9270;SDS011;4673;53.458;9.940;2022-09-19T16:23:01;1.20;;;1.20;;
9270;SDS011;4673;53.458;9.940;2022-09-19T16:28:39;1.50;;;1.50;;
9270;SDS011;4673;53.458;9.940;2022-09-19T16:34:02;1.53;;;1.53;;
9270;SDS011;4673;53.458;9.940;2022-09-19T16:36:28;1.60;;;1.60;;
9270;SDS011;4673;53.458;9.940;2022-09-19T16:41:25;1.73;;;1.73;;
9270;SDS011;4673;53.458;9.940;2022-09-19T16:46:47;1.80;;;1.80;;
9270;SDS011;4673;53.458;9.940;2022-09-19T16:49:17;2.67;;;2.67;;
9270;SDS011;4673;53.458;9.940;2022-09-19T16:51:42;2.40;;;2.40;;
9270;SDS011;4673;53.458;9.940;2022-09-19T16:54:09;2.03;;;2.03;;
9270;SDS011;4673;53.458;9.940;2022-09-19T16:56:38;1.87;;;1.87;;
9270;SDS011;4673;53.458;9.940;2022-09-19T16:59:09;2.07;;;2.07;;
9270;SDS011;4673;53.458;9.940;2022-09-19T17:01:36;2.40;;;2.40;;
9270;SDS011;4673;53.458;9.940;2022-09-19T17:04:07;2.43;;;2.43;;
9270;SDS011;4673;53.458;9.940;2022-09-19T17:06:41;2.27;;;2.27;;
9270;SDS011;4673;53.458;9.940;2022-09-19T17:09:07;1.90;;;1.90;;
9270;SDS011;4673;53.458;9.940;2022-09-19T17:11:33;2.43;;;2.43;;
9270;SDS011;4673;53.458;9.940;2022-09-19T17:13:58;2.53;;;2.53;;
9270;SDS011;4673;53.458;9.940;2022-09-19T17:16:24;3.03;;;3.03;;
9270;SDS011;4673;53.458;9.940;2022-09-19T17:18:49;2.07;;;2.07;;
9270;SDS011;4673;53.458;9.940;2022-09-19T17:21:15;2.30;;;2.30;;
9270;SDS011;4673;53.458;9.940;2022-09-19T17:23:41;2.13;;;2.13;;
9270;SDS011;4673;53.458;9.940;2022-09-19T17:26:11;1.77;;;1.77;;
9270;SDS011;4673;53.458;9.940;2022-09-19T17:28:37;1.90;;;1.90;;
9270;SDS011;4673;53.458;9.940;2022-09-19T17:31:05;2.57;;;2.57;;
9270;SDS011;4673;53.458;9.940;2022-09-19T17:33:33;2.57;;;2.57;;
9270;SDS011;4673;53.458;9.940;2022-09-19T17:35:59;2.13;;;2.13;;
9270;SDS011;4673;53.458;9.940;2022-09-19T17:38:26;2.70;;;2.70;;
9270;SDS011;4673;53.458;9.940;2022-09-19T17:40:53;2.47;;;2.47;;
9270;SDS011;4673;53.458;9.940;2022-09-19T17:43:20;2.90;;;2.90;;
9270;SDS011;4673;53.458;9.940;2022-09-19T17:45:47;2.03;;;2.03;;
9270;SDS011;4673;53.458;9.940;2022-09-19T17:48:19;2.40;;;2.40;;
9270;SDS011;4673;53.458;9.940;2022-09-19T17:50:45;2.47;;;2.47;;
9270;SDS011;4673;53.458;9.940;2022-09-19T17:53:10;1.53;;;1.53;;
9270;SDS011;4673;53.458;9.940;2022-09-19T17:55:36;1.20;;;1.20;;
9270;SDS011;4673;53.458;9.940;2022-09-19T17:58:02;1.47;;;1.47;;
9270;SDS011;4673;53.458;9.940;2022-09-19T18:00:29;1.70;;;1.70;;
9270;SDS011;4673;53.458;9.940;2022-09-19T18:02:56;2.80;;;2.80;;
9270;SDS011;4673;53.458;9.940;2022-09-19T18:05:40;1.80;;;1.80;;
9270;SDS011;4673;53.458;9.940;2022-09-19T18:08:05;0.97;;;0.97;;
9270;SDS011;4673;53.458;9.940;2022-09-19T18:10:31;0.70;;;0.70;;
9270;SDS011;4673;53.458;9.940;2022-09-19T18:12:58;0.77;;;0.77;;
9270;SDS011;4673;53.458;9.940;2022-09-19T18:15:28;0.77;;;0.77;;
9270;SDS011;4673;53.458;9.940;2022-09-19T18:17:56;0.80;;;0.80;;
9270;SDS011;4673;53.458;9.940;2022-09-19T18:20:22;0.77;;;0.77;;
9270;SDS011;4673;53.458;9.940;2022-09-19T18:22:50;1.00;;;1.00;;
9270;SDS011;4673;53.458;9.940;2022-09-19T18:25:16;0.83;;;0.83;;
9270;SDS011;4673;53.458;9.940;2022-09-19T18:27:45;1.10;;;1.10;;
9270;SDS011;4673;53.458;9.940;2022-09-19T18:30:12;1.10;;;1.10;;
9270;SDS011;4673;53.458;9.940;2022-09-19T18:32:44;1.10;;;1.10;;
9270;SDS011;4673;53.458;9.940;2022-09-19T18:35:11;1.00;;;1.00;;
9270;SDS011;4673;53.458;9.940;2022-09-19T18:37:39;1.20;;;1.20;;
9270;SDS011;4673;53.458;9.940;2022-09-19T18:40:06;1.07;;;1.07;;
9270;SDS011;4673;53.458;9.940;2022-09-19T18:42:34;1.00;;;1.00;;
9270;SDS011;4673;53.458;9.940;2022-09-19T18:45:01;1.20;;;1.20;;
9270;SDS011;4673;53.458;9.940;2022-09-19T18:47:30;0.80;;;0.80;;
9270;SDS011;4673;53.458;9.940;2022-09-19T18:49:57;0.90;;;0.90;;
9270;SDS011;4673;53.458;9.940;2022-09-19T18:52:23;1.30;;;1.30;;
9270;SDS011;4673;53.458;9.940;2022-09-19T18:54:50;0.93;;;0.93;;
9270;SDS011;4673;53.458;9.940;2022-09-19T18:57:16;1.03;;;1.03;;
9270;SDS011;4673;53.458;9.940;2022-09-19T18:59:42;0.80;;;0.80;;
9270;SDS011;4673;53.458;9.940;2022-09-19T19:02:11;0.97;;;0.97;;
9270;SDS011;4673;53.458;9.940;2022-09-19T19:04:37;0.87;;;0.87;;